Time;durP1;ratioP1;P1;durP2;ratioP2;P2;SDS_P1;SDS_P2;PMS_P1;PMS_P2;Temp;Humidity;BMP_temperature;BMP_pressure;BME280_temperature;BME280_humidity;BME280_pressure;Samples;Min_cycle;Max_cycle;Signal;HPM_P1;HPM_P2
2022/12/02 05:30:48;;;;;;;;;38.75;33.50;;;;;8.99;61.24;101821.03;5062893;27;45668;-76
2022/12/02 05:33:13;;;;;;;;;45.00;37.00;;;;;8.88;61.69;101804.34;5014664;28;45348;-76
2022/12/02 05:35:39;;;;;;;;;41.50;35.75;;;;;8.92;61.82;101805.16;5016898;28;48714;-77
2022/12/02 05:38:04;;;;;;;;;35.25;31.50;;;;;8.83;61.55;101787.53;5020012;28;46296;-76
2022/12/02 05:40:29;;;;;;;;;41.75;37.25;;;;;8.98;61.40;101818.38;5017350;28;45234;-75
2022/12/02 05:42:55;;;;;;;;;50.50;38.75;;;;;8.90;61.86;101794.50;5017733;28;45280;-75
2022/12/02 05:45:22;;;;;;;;;40.25;36.75;;;;;8.97;61.55;101795.22;5017358;28;45547;-78
2022/12/02 05:47:53;;;;;;;;;43.25;35.75;;;;;8.96;61.50;101801.47;4998578;28;46407;-75
2022/12/02 05:50:19;;;;;;;;;42.00;37.00;;;;;8.95;61.56;101797.03;5017218;28;45379;-76
2022/12/02 05:52:45;;;;;;;;;44.25;32.25;;;;;8.92;61.71;101798.03;5017508;28;45436;-76
2022/12/02 05:55:17;;;;;;;;;38.75;35.25;;;;;8.90;61.51;101788.25;4998622;28;45787;-77
2022/12/02 05:57:43;;;;;;;;;41.75;32.00;;;;;8.98;61.36;101802.34;4999401;28;47201;-77
2022/12/02 06:00:08;;;;;;;;;39.00;33.00;;;;;8.94;61.51;101798.84;5026497;28;45514;-76
2022/12/02 06:02:59;;;;;;;;;42.50;34.00;;;;;8.92;61.27;101802.47;5017538;28;45404;-77
2022/12/02 06:05:38;;;;;;;;;43.50;38.25;;;;;8.88;61.17;101793.63;4983189;28;46832;-78
2022/12/02 06:08:18;;;;;;;;;47.00;34.75;;;;;8.84;61.43;101789.28;5003868;28;47236;-75
2022/12/02 06:10:52;;;;;;;;;33.25;28.75;;;;;8.82;61.52;101782.19;5035812;28;45476;-77
2022/12/02 06:13:21;;;;;;;;;46.75;36.50;;;;;8.83;61.81;101775.94;5037302;28;45288;-80
2022/12/02 06:15:48;;;;;;;;;43.50;38.50;;;;;8.70;61.71;101762.84;5037312;28;45536;-83
2022/12/02 06:18:17;;;;;;;;;45.25;39.00;;;;;8.70;61.78;101767.31;5037486;28;45399;-77
2022/12/02 06:20:44;;;;;;;;;46.75;41.00;;;;;8.80;61.88;101794.72;5036971;28;45338;-74
2022/12/02 06:23:18;;;;;;;;;36.50;32.75;;;;;8.79;62.15;101784.94;5018880;28;45506;-78
2022/12/02 06:25:45;;;;;;;;;41.50;36.25;;;;;8.70;61.88;101773.53;5016869;28;45583;-79
2022/12/02 06:28:21;;;;;;;;;52.50;42.50;;;;;8.76;61.88;101780.56;5026622;28;45570;-78
2022/12/02 06:30:48;;;;;;;;;47.75;36.00;;;;;8.73;62.40;101777.94;5039448;28;45455;-77
2022/12/02 06:33:33;;;;;;;;;48.00;37.00;;;;;8.75;62.03;101781.47;5057469;28;45471;-79
2022/12/02 06:36:02;;;;;;;;;44.00;36.25;;;;;8.76;62.52;101785.03;5057072;28;45339;-76
2022/12/02 06:38:30;;;;;;;;;43.00;39.00;;;;;8.76;62.37;101779.69;5057683;28;45837;-75
2022/12/02 06:41:01;;;;;;;;;50.75;38.00;;;;;8.76;62.25;101785.91;5058187;28;45475;-78
2022/12/02 06:43:29;;;;;;;;;54.75;40.00;;;;;8.76;62.12;101782.34;5058489;28;45367;-74
2022/12/02 06:45:55;;;;;;;;;51.50;40.00;;;;;8.73;62.37;101786.84;5056749;28;45526;-74
2022/12/02 06:48:35;;;;;;;;;47.75;39.25;;;;;8.72;62.36;101781.53;5057155;28;45508;-76
2022/12/02 06:51:19;;;;;;;;;44.00;38.25;;;;;8.69;62.23;101779.78;5057036;28;45466;-75
2022/12/02 06:53:45;;;;;;;;;51.25;39.25;;;;;8.55;63.28;101751.59;5055434;28;45360;-75
2022/12/02 06:56:23;;;;;;;;;42.75;39.00;;;;;8.71;63.66;101774.41;5056629;28;45517;-75
2022/12/02 06:59:02;;;;;;;;;52.00;39.50;;;;;8.67;63.46;101768.28;5059669;28;45460;-77
2022/12/02 07:01:32;;;;;;;;;48.00;39.00;;;;;8.77;63.32;101784.06;5060353;28;45452;-76
2022/12/02 07:04:00;;;;;;;;;52.50;36.00;;;;;8.77;62.97;101779.63;5058357;28;45356;-76
2022/12/02 07:06:27;;;;;;;;;46.25;39.00;;;;;8.78;63.36;101773.34;5056963;28;45442;-75
2022/12/02 07:09:16;;;;;;;;;44.75;39.25;;;;;8.68;63.16;101753.97;5059777;28;45480;-77
2022/12/02 07:11:54;;;;;;;;;45.00;36.25;;;;;8.68;63.39;101756.63;5008384;28;45325;-77
2022/12/02 07:14:27;;;;;;;;;46.50;38.50;;;;;8.75;63.03;101776.13;5038512;28;45434;-76
2022/12/02 07:16:55;;;;;;;;;45.50;38.50;;;;;8.78;63.22;101761.78;5054468;28;45728;-76
2022/12/02 07:19:25;;;;;;;;;41.00;36.25;;;;;8.63;63.42;101737.16;5055706;28;45323;-75
2022/12/02 07:21:51;;;;;;;;;48.25;37.00;;;;;8.80;63.08;101774.22;5056904;28;45409;-77
2022/12/02 07:24:19;;;;;;;;;55.00;39.25;;;;;8.72;62.85;101763.69;5053649;28;45453;-78
2022/12/02 07:26:46;;;;;;;;;48.00;38.75;;;;;8.75;63.42;101770.78;5065751;28;45875;-76
2022/12/02 07:29:25;;;;;;;;;46.00;39.00;;;;;8.75;63.51;101772.56;5045636;28;45929;-77
2022/12/02 07:31:50;;;;;;;;;46.00;39.25;;;;;8.76;63.10;101780.56;5030013;28;45788;-76
2022/12/02 07:34:15;;;;;;;;;53.50;42.75;;;;;8.60;63.50;101757.72;5056358;28;45529;-78
2022/12/02 07:36:41;;;;;;;;;49.25;39.75;;;;;8.65;63.79;101775.44;5038202;28;47155;-77
2022/12/02 07:39:06;;;;;;;;;43.00;38.50;;;;;8.54;63.49;101753.38;5039064;28;47022;-77
2022/12/02 07:41:32;;;;;;;;;44.00;38.75;;;;;8.51;63.82;101744.53;5059838;28;45336;-77
2022/12/02 07:43:58;;;;;;;;;48.50;40.00;;;;;8.62;64.55;101763.91;5060810;28;45236;-77
2022/12/02 07:46:23;;;;;;;;;34.00;29.75;;;;;8.58;64.42;101765.78;5061371;28;45409;-78
2022/12/02 07:48:48;;;;;;;;;41.00;35.75;;;;;8.55;64.21;101760.50;5055022;28;45357;-77
2022/12/02 07:51:14;;;;;;;;;43.75;38.75;;;;;8.62;63.90;101778.16;5052714;28;45461;-77
2022/12/02 07:53:39;;;;;;;;;40.25;37.50;;;;;8.60;64.19;101763.06;5056309;28;45472;-77
2022/12/02 07:56:06;;;;;;;;;48.00;39.50;;;;;8.56;64.59;101758.72;5053562;28;45316;-77
2022/12/02 07:58:31;;;;;;;;;53.50;38.50;;;;;8.63;64.72;101774.56;5039391;28;46798;-78
2022/12/02 08:00:57;;;;;;;;;44.00;36.75;;;;;8.59;64.40;101758.66;5061672;28;45338;-76
2022/12/02 08:03:24;;;;;;;;;48.50;42.75;;;;;8.62;64.52;101764.78;5054880;28;45454;-76
2022/12/02 08:05:50;;;;;;;;;55.50;45.25;;;;;8.61;64.85;101763.03;5053764;28;45550;-76
2022/12/02 08:08:15;;;;;;;;;44.00;38.00;;;;;8.57;65.18;101766.69;5053625;28;45180;-78
2022/12/02 08:10:40;;;;;;;;;49.75;39.25;;;;;8.62;65.34;101775.50;5055427;28;45403;-76
2022/12/02 08:13:06;;;;;;;;;53.50;42.00;;;;;8.45;65.09;101745.56;5055452;28;45544;-76
2022/12/02 08:15:31;;;;;;;;;54.75;42.50;;;;;8.62;64.87;101779.94;5058949;28;45304;-74
2022/12/02 08:17:56;;;;;;;;;39.75;34.50;;;;;8.62;65.50;101771.94;5053074;28;45430;-76
2022/12/02 08:20:22;;;;;;;;;57.25;45.50;;;;;8.60;65.09;101763.06;5034928;28;45775;-77
2022/12/02 08:22:47;;;;;;;;;55.50;39.50;;;;;8.59;65.43;101759.50;5037035;28;45639;-76
2022/12/02 08:25:13;;;;;;;;;59.75;47.00;;;;;8.61;65.16;101764.81;5054713;28;45328;-77
2022/12/02 08:27:39;;;;;;;;;53.00;44.00;;;;;8.61;65.46;101773.72;5054075;28;45556;-76
2022/12/02 08:30:08;;;;;;;;;57.25;43.25;;;;;8.54;65.20;101757.84;5054625;28;45406;-77
2022/12/02 08:32:34;;;;;;;;;57.50;44.50;;;;;8.48;65.56;101753.53;5054947;28;45529;-82
2022/12/02 08:35:00;;;;;;;;;56.25;43.50;;;;;8.61;64.91;101775.50;5055019;28;45569;-75
2022/12/02 08:37:25;;;;;;;;;53.75;38.25;;;;;8.53;64.70;101765.00;5054524;28;45597;-77
2022/12/02 08:39:51;;;;;;;;;53.25;43.00;;;;;8.55;64.90;101773.88;5054306;28;45261;-79
2022/12/02 08:42:17;;;;;;;;;54.75;43.00;;;;;8.41;65.14;101754.56;5054571;28;45450;-77
2022/12/02 08:44:44;;;;;;;;;56.00;45.00;;;;;8.46;64.66;101763.38;5055237;28;45618;-77
2022/12/02 08:47:09;;;;;;;;;58.75;44.50;;;;;8.54;64.79;101782.78;5054311;28;46078;-77
2022/12/02 08:49:35;;;;;;;;;56.50;46.00;;;;;8.52;64.93;101779.25;5055239;28;45480;-76
2022/12/02 08:52:00;;;;;;;;;57.25;44.25;;;;;8.51;64.73;101777.50;5054273;28;45422;-76
2022/12/02 08:54:26;;;;;;;;;57.00;43.75;;;;;8.46;64.94;101774.06;5054688;28;45318;-78
2022/12/02 08:56:51;;;;;;;;;59.75;46.50;;;;;8.49;65.26;101781.13;5055381;28;45499;-77
2022/12/02 08:59:17;;;;;;;;;55.00;42.50;;;;;8.40;64.88;101766.19;5044310;28;45348;-77
2022/12/02 09:01:42;;;;;;;;;55.50;40.00;;;;;8.28;65.10;101732.53;5054833;28;45535;-77
2022/12/02 09:04:08;;;;;;;;;53.25;43.50;;;;;8.45;65.16;101774.97;5054855;28;45421;-76
2022/12/02 09:06:33;;;;;;;;;52.25;43.50;;;;;8.49;65.06;101765.97;5055251;28;45313;-77
2022/12/02 09:08:58;;;;;;;;;60.00;46.25;;;;;8.48;65.23;101744.63;5055645;28;45328;-77
2022/12/02 09:11:24;;;;;;;;;50.75;41.50;;;;;8.38;65.18;101737.72;5055153;28;45281;-78
2022/12/02 09:13:49;;;;;;;;;50.50;41.25;;;;;8.34;65.22;101727.09;5054185;28;45530;-77
2022/12/02 09:16:15;;;;;;;;;57.00;44.25;;;;;8.55;64.72;101756.94;5052949;28;46381;-77
2022/12/02 09:18:40;;;;;;;;;56.00;45.25;;;;;8.52;64.66;101757.00;5052884;28;45462;-76
2022/12/02 09:21:05;;;;;;;;;58.75;44.75;;;;;8.54;64.75;101774.78;5052634;28;45413;-77
2022/12/02 09:23:31;;;;;;;;;56.50;45.50;;;;;8.43;65.20;101749.16;5056555;28;45620;-78
2022/12/02 09:25:56;;;;;;;;;54.75;43.00;;;;;8.54;65.48;101771.22;5058033;28;45367;-77
2022/12/02 09:28:22;;;;;;;;;48.25;39.75;;;;;8.54;64.75;101764.09;5053703;28;45248;-79
2022/12/02 09:30:49;;;;;;;;;49.25;41.50;;;;;8.56;64.62;101753.38;5054265;28;45415;-78
2022/12/02 09:33:15;;;;;;;;;35.50;31.00;;;;;8.49;65.17;101749.94;5054329;28;45493;-76
2022/12/02 09:35:40;;;;;;;;;48.75;42.00;;;;;8.44;64.95;101743.81;5035818;28;48295;-77
2022/12/02 09:38:05;;;;;;;;;56.50;44.75;;;;;8.45;65.04;101739.34;5053982;28;45526;-78
2022/12/02 09:40:32;;;;;;;;;60.00;48.25;;;;;8.49;64.89;101755.28;5057361;28;45325;-77
2022/12/02 09:42:59;;;;;;;;;58.50;47.00;;;;;8.54;64.78;101761.41;5040869;28;45332;-78
2022/12/02 09:45:24;;;;;;;;;56.50;46.75;;;;;8.52;65.25;101751.66;5060010;28;46862;-77
2022/12/02 09:47:55;;;;;;;;;59.25;43.25;;;;;8.53;65.38;101759.66;5062243;28;45764;-76
2022/12/02 09:50:21;;;;;;;;;57.50;45.25;;;;;8.54;65.02;101750.72;5060878;28;45556;-76
2022/12/02 09:52:47;;;;;;;;;63.00;44.50;;;;;8.53;65.25;101740.94;5056891;28;45281;-77
2022/12/02 09:55:16;;;;;;;;;66.75;46.75;;;;;8.58;64.88;101752.44;5017660;28;47929;-77
2022/12/02 09:57:41;;;;;;;;;60.75;47.00;;;;;8.58;64.85;101746.19;5046276;28;45873;-77
2022/12/02 10:00:13;;;;;;;;;57.50;43.00;;;;;8.59;64.97;101739.94;5065117;28;45408;-76
2022/12/02 10:02:47;;;;;;;;;54.25;42.75;;;;;8.48;64.79;101721.47;5055679;28;45438;-77
2022/12/02 10:05:18;;;;;;;;;57.75;45.25;;;;;8.59;64.74;101735.44;5056199;28;45473;-78
2022/12/02 10:07:45;;;;;;;;;57.25;46.75;;;;;8.41;64.75;101706.47;5056474;28;45495;-76
2022/12/02 10:10:32;;;;;;;;;58.50;47.00;;;;;8.59;64.81;101730.09;5060798;28;45389;-77
2022/12/02 10:12:58;;;;;;;;;58.50;45.00;;;;;8.57;64.72;101721.25;5060850;28;45465;-75
2022/12/02 10:15:28;;;;;;;;;55.75;44.00;;;;;8.60;64.90;101734.53;5058622;28;46161;-77
2022/12/02 10:17:54;;;;;;;;;56.75;45.50;;;;;8.60;64.46;101725.63;5055265;28;45517;-76
2022/12/02 10:20:26;;;;;;;;;58.50;44.25;;;;;8.53;64.30;101716.88;5051956;28;45497;-76
2022/12/02 10:23:12;;;;;;;;;54.50;43.50;;;;;8.51;64.84;101707.13;5035474;28;47439;-76
2022/12/02 10:25:39;;;;;;;;;57.50;44.00;;;;;8.53;64.68;101714.22;5035303;28;45570;-76
2022/12/02 10:28:28;;;;;;;;;60.00;48.00;;;;;8.58;64.22;101724.81;5056840;28;45372;-74
2022/12/02 10:31:00;;;;;;;;;56.25;47.25;;;;;8.58;64.16;101730.16;5039023;28;45452;-78
2022/12/02 10:33:28;;;;;;;;;44.00;40.25;;;;;8.56;64.29;101708.81;5056431;28;45560;-76
2022/12/02 10:35:55;;;;;;;;;52.25;43.00;;;;;8.55;64.39;101699.03;5056277;28;45451;-75
2022/12/02 10:38:29;;;;;;;;;55.50;43.00;;;;;8.56;64.57;101699.91;5056260;28;45284;-77
2022/12/02 10:41:24;;;;;;;;;51.50;43.25;;;;;8.62;63.87;101711.34;5044052;28;45331;-75
2022/12/02 10:43:55;;;;;;;;;56.75;39.50;;;;;8.65;63.72;101703.25;5046910;28;45220;-73
2022/12/02 10:46:22;;;;;;;;;54.50;39.00;;;;;8.65;63.90;101697.91;5046918;28;45566;-77
2022/12/02 10:48:49;;;;;;;;;56.00;42.00;;;;;8.57;63.99;101680.28;5037434;28;45400;-75
2022/12/02 10:51:16;;;;;;;;;62.75;45.75;;;;;8.67;64.32;101690.75;5056653;28;45495;-76
2022/12/02 10:53:43;;;;;;;;;63.50;49.50;;;;;8.75;64.15;101690.56;5055195;28;46125;-71
2022/12/02 10:56:22;;;;;;;;;63.50;48.50;;;;;8.75;64.21;101692.34;5056640;28;45390;-77
2022/12/02 10:58:50;;;;;;;;;58.50;47.00;;;;;8.73;64.11;101676.34;5041420;28;45796;-74
2022/12/02 11:01:19;;;;;;;;;54.75;42.75;;;;;8.72;63.78;101671.91;5061702;28;45408;-76
2022/12/02 11:03:45;;;;;;;;;57.50;49.25;;;;;8.72;63.80;101671.91;5055727;28;45533;-77
2022/12/02 11:06:18;;;;;;;;;62.50;45.25;;;;;8.72;63.57;101677.25;5058441;28;45569;-78
2022/12/02 11:08:46;;;;;;;;;56.25;45.00;;;;;8.61;64.05;101656.13;5059329;28;45290;-78
2022/12/02 11:11:15;;;;;;;;;56.25;46.50;;;;;8.60;63.58;101662.38;5056820;28;45470;-76
2022/12/02 11:14:02;;;;;;;;;60.75;45.25;;;;;8.69;63.92;101683.53;5056501;28;45322;-76
2022/12/02 11:16:27;;;;;;;;;57.00;46.50;;;;;8.70;63.82;101679.09;5055893;28;45425;-75
2022/12/02 11:19:01;;;;;;;;;56.50;45.00;;;;;8.70;63.99;101671.94;5053429;28;45497;-75
2022/12/02 11:21:26;;;;;;;;;56.75;44.25;;;;;8.73;64.19;101668.31;5043105;28;45332;-76
2022/12/02 11:24:25;;;;;;;;;64.75;48.25;;;;;8.70;63.86;101663.91;5056236;28;45395;-81
2022/12/02 11:27:03;;;;;;;;;61.25;48.25;;;;;8.69;64.08;101664.84;5038765;28;47865;-81
2022/12/02 11:29:38;;;;;;;;;64.25;49.25;;;;;8.69;63.56;101653.25;5057308;28;45386;-78
2022/12/02 11:32:21;;;;;;;;;61.75;49.50;;;;;8.68;63.75;101655.06;5059667;28;45360;-76
2022/12/02 11:34:51;;;;;;;;;54.75;42.50;;;;;8.68;63.61;101647.03;5041986;28;46079;-76
2022/12/02 11:37:29;;;;;;;;;65.25;46.00;;;;;8.69;63.48;101648.78;5058661;28;45358;-76
2022/12/02 11:39:54;;;;;;;;;63.75;45.00;;;;;8.71;63.69;101648.75;5058751;28;45248;-78
2022/12/02 11:42:33;;;;;;;;;62.75;46.25;;;;;8.69;63.57;101643.44;5057121;28;45670;-79
2022/12/02 11:45:18;;;;;;;;;56.75;43.50;;;;;8.71;64.00;101638.94;5037438;28;46253;-77
2022/12/02 11:47:44;;;;;;;;;62.50;45.00;;;;;8.68;63.18;101640.81;5054788;28;46041;-76
2022/12/02 11:50:16;;;;;;;;;58.00;44.75;;;;;8.67;63.40;101633.72;5037072;28;45824;-77
2022/12/02 11:52:48;;;;;;;;;56.25;46.75;;;;;8.60;63.58;101621.41;5037739;28;45291;-78
2022/12/02 11:55:28;;;;;;;;;60.25;44.00;;;;;8.60;63.46;101621.41;5055264;28;45562;-77
2022/12/02 11:57:56;;;;;;;;;54.00;43.00;;;;;8.63;63.78;101630.22;5055836;28;45422;-77
2022/12/02 12:00:24;;;;;;;;;65.50;45.00;;;;;8.53;63.66;101607.31;5030845;28;45246;-78
2022/12/02 12:03:26;;;;;;;;;61.25;48.25;;;;;8.65;63.22;101627.53;5057465;28;45465;-75
2022/12/02 12:06:11;;;;;;;;;58.50;48.25;;;;;8.61;63.39;101615.13;5057495;28;45446;-77
2022/12/02 12:08:39;;;;;;;;;54.00;43.00;;;;;8.59;63.16;101612.50;5056078;28;45408;-76
2022/12/02 12:11:15;;;;;;;;;60.50;47.50;;;;;8.58;63.60;101617.91;5056187;28;45346;-78
2022/12/02 12:14:11;;;;;;;;;61.00;48.00;;;;;8.60;63.35;101611.59;5055392;28;45498;-77
2022/12/02 12:16:42;;;;;;;;;55.25;46.00;;;;;8.60;63.46;101608.91;5041727;28;45867;-76
2022/12/02 12:19:10;;;;;;;;;58.00;45.25;;;;;8.62;63.44;101601.75;5052221;28;46728;-76
2022/12/02 12:21:41;;;;;;;;;62.00;47.25;;;;;8.59;64.02;101588.44;5055419;28;45399;-77
2022/12/02 12:24:27;;;;;;;;;57.25;47.00;;;;;8.59;64.34;101596.47;5056053;28;45364;-78
2022/12/02 12:26:55;;;;;;;;;61.75;48.50;;;;;8.58;65.23;101592.06;5055560;28;45267;-77
2022/12/02 12:29:26;;;;;;;;;56.50;44.50;;;;;8.30;66.00;101542.81;5055683;28;45915;-79
2022/12/02 12:31:51;;;;;;;;;54.25;44.25;;;;;8.45;66.58;101565.66;5055941;28;45340;-78
2022/12/02 12:34:17;;;;;;;;;63.00;46.50;;;;;8.46;66.58;101559.41;5055904;28;45590;-77
2022/12/02 12:36:44;;;;;;;;;55.50;43.50;;;;;8.52;66.63;101577.94;5055929;28;45355;-80
2022/12/02 12:39:10;;;;;;;;;56.75;45.75;;;;;8.50;67.01;101578.00;5055019;28;46697;-77
2022/12/02 12:41:36;;;;;;;;;58.00;45.50;;;;;8.44;67.54;101558.53;5055134;28;45509;-75
2022/12/02 12:44:01;;;;;;;;;66.00;45.00;;;;;8.46;68.52;101557.59;5055262;28;45321;-78
2022/12/02 12:46:27;;;;;;;;;57.50;46.50;;;;;8.49;68.18;101562.00;5055156;28;45398;-74
2022/12/02 12:48:56;;;;;;;;;59.75;43.50;;;;;8.53;67.45;101561.88;5054465;28;45291;-75
2022/12/02 12:51:21;;;;;;;;;56.00;45.00;;;;;8.52;67.55;101552.09;5053744;28;45371;-73
2022/12/02 12:53:47;;;;;;;;;62.50;46.50;;;;;8.59;66.92;101555.53;5053533;28;45319;-74
2022/12/02 12:56:12;;;;;;;;;64.25;47.00;;;;;8.48;67.02;101517.50;5054044;28;45589;-75
2022/12/02 12:58:38;;;;;;;;;55.25;45.25;;;;;8.65;66.05;101547.34;5046744;28;45696;-78
2022/12/02 13:01:03;;;;;;;;;57.50;45.25;;;;;8.62;65.94;101536.72;5040666;28;45494;-79
2022/12/02 13:03:28;;;;;;;;;53.25;42.50;;;;;8.64;65.89;101538.44;5053565;28;45520;-77
2022/12/02 13:05:54;;;;;;;;;64.25;48.75;;;;;8.49;65.42;101497.88;5054225;28;45599;-78
2022/12/02 13:08:20;;;;;;;;;58.25;46.25;;;;;8.56;65.53;101516.38;5054244;28;46366;-79
2022/12/02 13:10:45;;;;;;;;;54.50;45.75;;;;;8.61;65.77;101530.50;5054350;28;45401;-79
2022/12/02 13:13:10;;;;;;;;;58.00;46.00;;;;;8.51;65.62;101501.34;5054378;28;45453;-79
2022/12/02 13:15:36;;;;;;;;;57.50;44.50;;;;;8.52;65.21;101512.00;5053809;28;45528;-80
2022/12/02 13:18:01;;;;;;;;;58.25;45.25;;;;;8.52;65.19;101520.03;5054227;28;46175;-79
2022/12/02 13:20:27;;;;;;;;;57.75;39.25;;;;;8.55;65.88;101519.97;5051685;28;45410;-77
2022/12/02 13:22:55;;;;;;;;;50.25;39.25;;;;;8.52;65.23;101516.47;5053677;28;45835;-80
2022/12/02 13:25:20;;;;;;;;;55.75;44.50;;;;;8.37;65.71;101492.81;5052823;28;45535;-79
2022/12/02 13:27:46;;;;;;;;;56.00;43.75;;;;;8.50;65.47;101513.00;5054496;28;46136;-78
2022/12/02 13:30:14;;;;;;;;;57.50;45.25;;;;;8.49;65.79;101509.44;5053251;28;45562;-79
2022/12/02 13:32:40;;;;;;;;;57.00;43.75;;;;;8.46;65.64;101495.25;5054158;28;45549;-79
2022/12/02 13:35:06;;;;;;;;;59.75;45.50;;;;;8.46;65.66;101498.81;5054475;28;45484;-78
2022/12/02 13:37:31;;;;;;;;;57.25;45.25;;;;;8.54;65.59;101510.19;5052965;28;46349;-78
2022/12/02 13:39:57;;;;;;;;;53.50;38.25;;;;;8.53;65.71;101502.19;5053717;28;45508;-77
2022/12/02 13:42:23;;;;;;;;;55.50;43.75;;;;;8.53;65.13;101504.88;5054790;28;45482;-77
2022/12/02 13:44:49;;;;;;;;;59.75;44.50;;;;;8.47;65.49;101495.22;5055431;28;45419;-79
2022/12/02 13:47:14;;;;;;;;;25.50;9.00;;;;;8.53;65.22;101502.19;5037136;28;46252;-81
2022/12/02 13:49:41;;;;;;;;;59.50;45.25;;;;;8.55;65.43;101503.94;5055257;28;45604;-75
2022/12/02 13:52:06;;;;;;;;;56.25;43.75;;;;;8.52;65.47;101498.66;5053676;28;45413;-77
2022/12/02 13:54:31;;;;;;;;;61.25;45.25;;;;;8.52;65.03;101500.44;5035723;28;45805;-79
2022/12/02 13:56:57;;;;;;;;;61.25;49.00;;;;;8.48;64.95;101499.66;5035453;28;46070;-79
2022/12/02 13:59:23;;;;;;;;;61.00;46.50;;;;;8.32;65.17;101479.59;5062371;28;45343;-78
2022/12/02 14:01:48;;;;;;;;;58.75;43.25;;;;;8.43;65.77;101503.34;5055549;28;45525;-78
2022/12/02 14:04:14;;;;;;;;;52.75;43.50;;;;;8.41;65.71;101503.41;5039566;28;45443;-81
2022/12/02 14:06:39;;;;;;;;;55.25;46.25;;;;;8.30;65.22;101474.25;5058636;28;45321;-78
2022/12/02 14:09:04;;;;;;;;;53.75;43.25;;;;;8.32;65.35;101475.13;5059122;28;45433;-77
2022/12/02 14:11:30;;;;;;;;;58.00;46.75;;;;;8.23;65.56;101440.59;5058972;28;45589;-77
2022/12/02 14:13:55;;;;;;;;;54.00;42.50;;;;;8.43;65.86;101468.59;5056875;28;45520;-78
2022/12/02 14:16:26;;;;;;;;;59.50;43.75;;;;;8.37;65.75;101450.94;5038632;28;46126;-78
2022/12/02 14:18:51;;;;;;;;;52.00;40.75;;;;;8.37;65.17;101453.63;5057358;28;45572;-77
2022/12/02 14:21:17;;;;;;;;;60.50;45.00;;;;;8.45;65.16;101458.78;5057427;28;45593;-76
2022/12/02 14:23:42;;;;;;;;;58.25;46.50;;;;;8.47;65.49;101457.81;5056454;28;45558;-76
2022/12/02 14:26:07;;;;;;;;;62.00;46.00;;;;;8.41;65.35;101454.44;5056661;28;45393;-77
2022/12/02 14:28:33;;;;;;;;;60.50;47.25;;;;;8.44;65.63;101460.56;5057195;28;45364;-78
2022/12/02 14:30:58;;;;;;;;;62.75;49.00;;;;;8.24;65.25;101422.78;5051432;28;45632;-79
2022/12/02 14:33:24;;;;;;;;;58.50;45.00;;;;;8.45;65.00;101464.09;5053624;28;45563;-79
2022/12/02 14:35:49;;;;;;;;;54.00;39.00;;;;;8.41;64.75;101470.47;5056436;28;45422;-80
2022/12/02 14:38:17;;;;;;;;;53.75;43.25;;;;;8.31;65.07;101459.13;5056348;28;45270;-78
2022/12/02 14:40:43;;;;;;;;;49.50;41.00;;;;;8.37;64.76;101474.13;5049847;28;45414;-78
2022/12/02 14:43:08;;;;;;;;;60.25;46.25;;;;;8.26;65.10;101455.66;5056548;28;45451;-76
2022/12/02 14:45:34;;;;;;;;;48.25;40.25;;;;;8.25;65.61;101459.25;5049077;28;45619;-78
2022/12/02 14:47:59;;;;;;;;;57.00;46.50;;;;;8.21;65.41;101450.44;5056093;28;45307;-75
2022/12/02 14:50:28;;;;;;;;;57.75;46.75;;;;;8.15;65.47;101433.69;5056734;28;45529;-75
2022/12/02 14:52:55;;;;;;;;;53.25;43.50;;;;;8.24;65.54;101457.50;5056365;28;45918;-79
2022/12/02 14:55:21;;;;;;;;;59.00;43.75;;;;;8.25;65.95;101461.94;5056642;28;46189;-80
2022/12/02 14:57:47;;;;;;;;;55.00;45.50;;;;;8.11;65.76;101432.88;5038613;28;45485;-78
2022/12/02 15:00:13;;;;;;;;;59.50;43.50;;;;;8.21;65.96;101452.22;5064885;28;45292;-78
2022/12/02 15:02:38;;;;;;;;;59.75;46.00;;;;;8.07;66.08;101430.34;5055927;28;45380;-75
2022/12/02 15:05:04;;;;;;;;;51.25;40.75;;;;;8.18;66.20;101450.50;5055476;28;45705;-78
2022/12/02 15:07:30;;;;;;;;;56.00;43.00;;;;;8.14;66.12;101445.28;5055750;28;45402;-77
2022/12/02 15:09:55;;;;;;;;;56.75;45.25;;;;;8.15;66.88;101452.38;5037079;28;45454;-76
2022/12/02 15:12:21;;;;;;;;;58.75;44.25;;;;;8.14;66.76;101447.97;5037305;28;46599;-78
2022/12/02 15:14:46;;;;;;;;;60.25;46.25;;;;;8.19;67.78;101449.59;5054059;28;46398;-77
2022/12/02 15:17:11;;;;;;;;;60.50;45.50;;;;;8.15;68.21;101447.91;5055554;28;45360;-74
2022/12/02 15:19:37;;;;;;;;;52.75;40.25;;;;;8.16;67.93;101457.69;5054726;28;45340;-74
2022/12/02 15:22:02;;;;;;;;;66.25;49.00;;;;;7.99;68.90;101430.53;5054027;28;45490;-75
2022/12/02 15:24:27;;;;;;;;;56.50;46.50;;;;;8.13;69.34;101464.88;5054927;28;46388;-73
2022/12/02 15:26:53;;;;;;;;;57.25;45.50;;;;;8.11;69.75;101448.91;5055507;28;45433;-77
2022/12/02 15:29:18;;;;;;;;;51.00;40.00;;;;;8.02;69.21;101429.53;5056331;28;45323;-76
2022/12/02 15:31:44;;;;;;;;;48.75;36.00;;;;;8.08;69.39;101446.28;5054928;28;45375;-76
2022/12/02 15:34:09;;;;;;;;;60.00;46.00;;;;;8.08;70.17;101446.28;5038377;28;45817;-75
2022/12/02 15:36:34;;;;;;;;;42.25;35.50;;;;;7.98;70.27;101421.63;5055011;28;45437;-78
2022/12/02 15:39:00;;;;;;;;;47.75;40.25;;;;;7.74;70.52;101389.31;5057131;28;45557;-78
2022/12/02 15:41:25;;;;;;;;;49.50;41.00;;;;;8.07;70.72;101452.56;5057392;28;45422;-77
2022/12/02 15:43:53;;;;;;;;;47.50;40.00;;;;;8.02;71.18;101442.91;5056999;28;46436;-78
2022/12/02 15:46:18;;;;;;;;;39.50;35.00;;;;;8.01;70.72;101451.81;5039739;28;45450;-78
2022/12/02 15:48:44;;;;;;;;;53.00;41.00;;;;;7.89;71.21;101432.53;5056911;28;45498;-78
2022/12/02 15:51:09;;;;;;;;;47.25;37.50;;;;;8.02;71.93;101449.13;5036664;28;47426;-77
2022/12/02 15:53:34;;;;;;;;;58.75;45.50;;;;;8.03;71.62;101447.31;5055421;28;45420;-74
2022/12/02 15:56:00;;;;;;;;;55.00;43.00;;;;;8.03;71.58;101436.66;5056154;28;45367;-78
2022/12/02 15:58:25;;;;;;;;;52.50;40.00;;;;;8.02;72.35;101446.44;5052750;28;45582;-78
2022/12/02 16:00:51;;;;;;;;;48.00;41.00;;;;;7.94;72.37;101435.97;5043639;28;45575;-78
2022/12/02 16:03:16;;;;;;;;;59.00;43.75;;;;;8.02;72.36;101451.78;5055887;28;46162;-78
2022/12/02 16:05:41;;;;;;;;;51.00;44.00;;;;;7.95;72.79;101440.38;5055409;28;45339;-80
2022/12/02 16:08:07;;;;;;;;;47.00;40.50;;;;;7.88;72.13;101428.09;5037320;28;45253;-78
2022/12/02 16:10:32;;;;;;;;;47.00;39.50;;;;;7.94;72.05;101433.28;5056132;28;45323;-79
2022/12/02 16:12:58;;;;;;;;;50.00;38.75;;;;;8.01;71.98;101449.16;5054945;28;46954;-76
2022/12/02 16:15:23;;;;;;;;;50.75;40.50;;;;;7.94;72.08;101443.09;5055674;28;45263;-77
2022/12/02 16:17:48;;;;;;;;;51.75;39.00;;;;;8.02;72.89;101442.91;5054895;28;45339;-76
2022/12/02 16:20:14;;;;;;;;;41.00;36.00;;;;;7.90;72.51;101430.75;5032892;28;45260;-79
2022/12/02 16:22:40;;;;;;;;;44.25;36.25;;;;;8.04;72.61;101452.63;5036439;28;48472;-76
2022/12/02 16:25:05;;;;;;;;;44.75;38.00;;;;;8.03;72.34;101456.22;5053089;28;45487;-80
2022/12/02 16:27:31;;;;;;;;;39.00;36.25;;;;;8.01;71.83;101454.50;5047306;28;45462;-80
2022/12/02 16:29:56;;;;;;;;;43.00;36.25;;;;;7.88;71.11;101435.22;5034418;28;45866;-75
2022/12/02 16:32:22;;;;;;;;;41.50;37.00;;;;;7.86;70.60;101435.25;5054864;28;45542;-75
2022/12/02 16:34:47;;;;;;;;;48.00;40.25;;;;;7.86;70.76;101447.72;5033525;28;46361;-76
2022/12/02 16:37:16;;;;;;;;;45.25;35.50;;;;;7.81;71.23;101463.00;5054710;28;45884;-75
2022/12/02 16:39:41;;;;;;;;;40.25;34.50;;;;;7.40;70.55;101391.91;5050197;28;45513;-80
2022/12/02 16:42:08;;;;;;;;;41.00;36.50;;;;;7.73;70.97;101457.84;5049304;28;46187;-74
2022/12/02 16:44:33;;;;;;;;;46.00;36.50;;;;;7.56;70.94;101435.97;5052673;28;45806;-78
2022/12/02 16:46:59;;;;;;;;;45.50;39.00;;;;;7.69;71.45;101461.47;5048241;28;45449;-78
2022/12/02 16:49:24;;;;;;;;;47.25;38.75;;;;;7.68;70.69;101472.16;5053354;28;45327;-79
2022/12/02 16:51:49;;;;;;;;;47.25;39.50;;;;;7.67;71.30;101473.06;5054723;28;45331;-76